Time;durP1;ratioP1;P1;durP2;ratioP2;P2;SDS_P1;SDS_P2;PMS_P1;PMS_P2;Temp;Humidity;BMP_temperature;BMP_pressure;BME280_temperature;BME280_humidity;BME280_pressure;Samples;Min_cycle;Max_cycle;Signal;HPM_P1;HPM_P2
2022/05/02 00:00:48;;;;;;;31.30;20.17;;;13.30;45.80;;;;;;5008451;28;20751;-72
2022/05/02 00:03:14;;;;;;;30.83;20.90;;;13.20;46.60;;;;;;5013589;28;20296;-72
2022/05/02 00:05:40;;;;;;;29.53;20.80;;;13.30;46.50;;;;;;5002010;28;20203;-72
2022/05/02 00:08:06;;;;;;;32.00;22.23;;;13.00;46.70;;;;;;4999481;28;20448;-71
2022/05/02 00:10:33;;;;;;;31.43;22.20;;;13.20;45.40;;;;;;5006261;28;20793;-72
2022/05/02 00:13:01;;;;;;;37.67;21.70;;;13.20;45.20;;;;;;5005997;28;20479;-71
2022/05/02 00:15:27;;;;;;;37.27;23.33;;;13.00;46.80;;;;;;4996844;28;20977;-72
2022/05/02 00:18:02;;;;;;;35.07;22.30;;;12.90;46.00;;;;;;4994325;28;20471;-72
2022/05/02 00:20:35;;;;;;;32.00;21.80;;;12.90;46.50;;;;;;5002648;28;20919;-72
2022/05/02 00:23:09;;;;;;;33.77;22.83;;;12.90;46.30;;;;;;5011130;28;20436;-72
2022/05/02 00:25:35;;;;;;;33.00;21.60;;;12.80;46.80;;;;;;5008327;28;21105;-72
2022/05/02 00:28:03;;;;;;;36.30;21.77;;;12.80;46.70;;;;;;4994210;28;20445;-72
2022/05/02 00:30:29;;;;;;;32.40;21.70;;;13.30;47.90;;;;;;4984199;28;20951;-72
2022/05/02 00:32:55;;;;;;;32.10;21.07;;;12.90;46.50;;;;;;5008730;28;20965;-72
2022/05/02 00:35:21;;;;;;;36.07;24.10;;;12.90;45.80;;;;;;5005465;28;20515;-72
2022/05/02 00:37:47;;;;;;;31.70;21.37;;;12.90;46.20;;;;;;5004092;28;20429;-72
2022/05/02 00:40:14;;;;;;;31.37;22.00;;;13.10;43.90;;;;;;4995585;28;20178;-72
2022/05/02 00:42:43;;;;;;;33.00;21.87;;;13.20;43.50;;;;;;4987886;28;20451;-72
2022/05/02 00:45:10;;;;;;;29.53;21.03;;;13.10;44.20;;;;;;4995858;28;20532;-72
2022/05/02 00:47:36;;;;;;;32.80;21.40;;;12.90;44.60;;;;;;4998973;28;20464;-72
2022/05/02 00:50:07;;;;;;;31.90;22.00;;;12.80;45.00;;;;;;4979795;28;20478;-72
2022/05/02 00:52:33;;;;;;;33.33;22.80;;;12.80;45.40;;;;;;5000187;28;20477;-72
2022/05/02 00:55:02;;;;;;;43.97;23.20;;;13.00;44.30;;;;;;4994466;28;20467;-72
2022/05/02 00:57:28;;;;;;;35.07;22.93;;;13.00;43.40;;;;;;4993036;28;20432;-72
2022/05/02 00:59:54;;;;;;;39.27;23.37;;;12.90;44.30;;;;;;5001999;28;21050;-72
2022/05/02 01:02:19;;;;;;;34.00;22.30;;;12.90;44.90;;;;;;4993825;28;20436;-72
2022/05/02 01:04:45;;;;;;;37.20;22.67;;;12.70;45.00;;;;;;4992464;28;20344;-72
2022/05/02 01:07:11;;;;;;;32.73;22.90;;;12.60;46.40;;;;;;4999139;28;20612;-72
2022/05/02 01:09:45;;;;;;;33.00;22.30;;;12.50;45.80;;;;;;5000257;28;20186;-72
2022/05/02 01:12:21;;;;;;;35.47;22.77;;;12.50;46.10;;;;;;5009709;28;20459;-72
2022/05/02 01:14:48;;;;;;;38.70;24.87;;;12.50;46.60;;;;;;4990877;28;20433;-72
2022/05/02 01:17:14;;;;;;;36.40;23.17;;;12.50;44.70;;;;;;4991596;28;20507;-72
2022/05/02 01:19:40;;;;;;;39.20;22.43;;;12.50;45.50;;;;;;4998994;28;20499;-72
2022/05/02 01:22:07;;;;;;;33.67;22.40;;;12.30;46.00;;;;;;4995510;28;20418;-72
2022/05/02 01:24:37;;;;;;;31.50;22.90;;;12.30;46.90;;;;;;4997362;28;20319;-72
2022/05/02 01:27:04;;;;;;;37.50;23.03;;;12.30;47.20;;;;;;4995983;28;20479;-71
2022/05/02 01:29:34;;;;;;;32.70;21.90;;;12.40;46.30;;;;;;5000121;28;20796;-72
2022/05/02 01:32:00;;;;;;;39.20;23.87;;;12.50;45.10;;;;;;4996564;28;20833;-71
2022/05/02 01:34:27;;;;;;;34.23;22.70;;;12.50;45.30;;;;;;4988472;28;20564;-72
2022/05/02 01:36:52;;;;;;;39.47;23.30;;;12.40;44.80;;;;;;4989513;28;20507;-72
2022/05/02 01:39:18;;;;;;;33.30;22.17;;;12.30;45.40;;;;;;4992233;28;20232;-72
2022/05/02 01:41:44;;;;;;;33.37;22.30;;;12.20;47.20;;;;;;5000313;28;20179;-71
2022/05/02 01:44:10;;;;;;;33.33;22.53;;;12.10;46.20;;;;;;4992728;28;20208;-72
2022/05/02 01:46:37;;;;;;;33.67;22.37;;;12.10;46.30;;;;;;4993252;28;20883;-71
2022/05/02 01:49:02;;;;;;;35.38;23.50;;;12.20;46.00;;;;;;4992752;28;20186;-72
2022/05/02 01:51:28;;;;;;;36.90;23.70;;;12.00;46.30;;;;;;5003815;28;20181;-72
2022/05/02 01:53:54;;;;;;;34.17;23.70;;;11.90;47.00;;;;;;5012619;28;20213;-72
2022/05/02 01:56:19;;;;;;;33.23;21.20;;;11.90;47.50;;;;;;5012669;28;20262;-72
2022/05/02 01:58:45;;;;;;;31.43;21.83;;;12.00;46.60;;;;;;5012478;28;20169;-72
2022/05/02 02:01:10;;;;;;;33.03;22.40;;;12.00;46.50;;;;;;5000052;28;20235;-72
2022/05/02 02:03:37;;;;;;;38.43;23.43;;;12.20;45.60;;;;;;5000641;28;20699;-71
2022/05/02 02:06:03;;;;;;;31.98;22.35;;;12.00;45.60;;;;;;5009648;28;20585;-72
2022/05/02 02:08:31;;;;;;;42.20;23.60;;;11.90;46.50;;;;;;5001528;28;20582;-72
2022/05/02 02:11:03;;;;;;;37.92;23.48;;;11.90;47.40;;;;;;4991319;28;20188;-71
2022/05/02 02:13:29;;;;;;;35.25;24.30;;;12.10;46.60;;;;;;4996716;28;20258;-72
2022/05/02 02:15:54;;;;;;;37.67;23.70;;;12.00;46.50;;;;;;4988421;28;20178;-71
2022/05/02 02:18:20;;;;;;;31.50;21.67;;;11.90;48.60;;;;;;5000882;28;20412;-70
2022/05/02 02:20:47;;;;;;;33.97;22.50;;;11.90;46.70;;;;;;5006786;28;20186;-70
2022/05/02 02:23:15;;;;;;;33.00;23.25;;;12.00;46.50;;;;;;5002624;28;20288;-72
2022/05/02 02:25:41;;;;;;;38.42;25.42;;;11.80;46.10;;;;;;5012017;28;20713;-72
2022/05/02 02:28:07;;;;;;;33.40;23.40;;;12.00;45.30;;;;;;5002529;28;20186;-72
2022/05/02 02:30:33;;;;;;;42.33;25.30;;;12.10;45.20;;;;;;4992910;28;20197;-72
2022/05/02 02:33:00;;;;;;;35.70;24.30;;;12.10;45.40;;;;;;4999308;28;20625;-72
2022/05/02 02:35:27;;;;;;;37.88;24.45;;;12.10;45.60;;;;;;4992180;28;20404;-72
2022/05/02 02:37:53;;;;;;;39.40;24.95;;;12.00;46.60;;;;;;4991925;28;20272;-72
2022/05/02 02:40:19;;;;;;;38.63;23.40;;;11.80;45.80;;;;;;5000012;28;20699;-71
2022/05/02 02:42:45;;;;;;;38.60;25.63;;;11.80;45.90;;;;;;4997470;28;20220;-72
2022/05/02 02:45:11;;;;;;;43.85;24.25;;;11.50;47.90;;;;;;5003446;28;20267;-71
2022/05/02 02:47:36;;;;;;;39.13;24.43;;;11.50;47.00;;;;;;5011902;28;20189;-72
2022/05/02 02:50:03;;;;;;;39.60;24.60;;;11.60;48.00;;;;;;5002575;28;20945;-72
2022/05/02 02:52:29;;;;;;;32.67;23.52;;;11.60;47.00;;;;;;4998634;28;20254;-69
2022/05/02 02:54:55;;;;;;;39.37;23.50;;;11.60;46.80;;;;;;4999829;28;20209;-72
2022/05/02 02:57:20;;;;;;;39.27;26.03;;;11.60;46.10;;;;;;5005056;28;20189;-69
2022/05/02 02:59:46;;;;;;;40.57;26.50;;;11.70;47.10;;;;;;4992946;28;20703;-71
2022/05/02 03:02:12;;;;;;;40.43;25.40;;;11.70;45.90;;;;;;4999343;28;20256;-72
2022/05/02 03:07:27;;;;;;;38.13;24.70;;;11.60;46.40;;;;;;4995629;28;20263;-71
2022/05/02 03:09:53;;;;;;;34.45;24.75;;;11.50;47.10;;;;;;5011392;28;20626;-72
2022/05/02 03:12:21;;;;;;;35.05;24.77;;;11.50;46.00;;;;;;5000325;28;20204;-72
2022/05/02 03:14:46;;;;;;;36.67;23.88;;;11.50;47.20;;;;;;4997385;28;20188;-72
2022/05/02 03:17:12;;;;;;;36.00;24.27;;;11.60;46.40;;;;;;5003383;28;20599;-72
2022/05/02 03:19:38;;;;;;;35.27;24.07;;;11.50;46.00;;;;;;5011334;28;20407;-72
2022/05/02 03:22:04;;;;;;;38.15;23.95;;;11.40;45.90;;;;;;5007578;28;20193;-72
2022/05/02 03:24:30;;;;;;;52.55;24.35;;;11.40;45.90;;;;;;4995049;28;20243;-73
2022/05/02 03:26:56;;;;;;;36.57;24.43;;;11.40;46.10;;;;;;5003114;28;20191;-69
2022/05/02 03:29:22;;;;;;;37.60;24.57;;;11.40;46.40;;;;;;5001439;28;20217;-70
2022/05/02 03:31:47;;;;;;;33.70;24.13;;;11.20;46.70;;;;;;4997102;28;20994;-72
2022/05/02 03:34:13;;;;;;;37.43;23.53;;;11.20;46.30;;;;;;4994893;28;20212;-72
2022/05/02 03:36:39;;;;;;;36.50;24.40;;;11.10;46.00;;;;;;5002235;28;20170;-71
2022/05/02 03:39:04;;;;;;;46.80;25.10;;;11.10;46.40;;;;;;4994959;28;20188;-71
2022/05/02 03:41:30;;;;;;;37.23;25.23;;;11.10;47.80;;;;;;4995297;28;20180;-69
2022/05/02 03:43:56;;;;;;;41.40;26.88;;;11.10;47.50;;;;;;4994130;28;20211;-69
2022/05/02 03:46:23;;;;;;;42.67;26.83;;;11.10;47.20;;;;;;4997073;28;20268;-70
2022/05/02 03:48:48;;;;;;;38.42;24.73;;;11.00;48.30;;;;;;5003543;28;20178;-70
2022/05/02 03:51:14;;;;;;;43.97;27.47;;;11.00;48.20;;;;;;5013496;28;20262;-72
2022/05/02 03:53:39;;;;;;;40.27;27.10;;;11.00;49.00;;;;;;5002379;28;20218;-70
2022/05/02 03:56:05;;;;;;;50.50;28.83;;;11.00;47.80;;;;;;5004972;28;20182;-72
2022/05/02 03:58:31;;;;;;;41.47;27.40;;;11.30;46.30;;;;;;5007695;28;20212;-71
2022/05/02 04:00:57;;;;;;;50.03;29.23;;;11.40;45.90;;;;;;5014515;28;20658;-69
2022/05/02 04:03:23;;;;;;;45.35;28.33;;;11.10;46.80;;;;;;5014807;28;20226;-71
2022/05/02 04:05:48;;;;;;;42.80;27.27;;;11.10;47.50;;;;;;4999777;28;20203;-73
2022/05/02 04:08:14;;;;;;;47.73;30.10;;;11.10;47.30;;;;;;5003788;28;20429;-72
2022/05/02 04:10:40;;;;;;;48.33;29.90;;;11.10;47.40;;;;;;5013056;28;20185;-72
2022/05/02 04:13:06;;;;;;;44.53;29.13;;;11.20;47.40;;;;;;5005283;28;20264;-70
2022/05/02 04:15:31;;;;;;;45.60;29.67;;;11.20;46.80;;;;;;5001929;28;20927;-71
2022/05/02 04:17:58;;;;;;;45.80;29.17;;;11.40;45.20;;;;;;5002145;28;20671;-69
2022/05/02 04:20:24;;;;;;;44.20;29.00;;;11.30;46.60;;;;;;5006514;28;20265;-72
2022/05/02 04:22:50;;;;;;;47.50;26.45;;;11.10;47.10;;;;;;4997791;28;20618;-72
2022/05/02 04:25:16;;;;;;;44.13;26.95;;;11.10;46.50;;;;;;4997245;28;20256;-72
2022/05/02 04:27:42;;;;;;;44.60;27.27;;;11.20;46.70;;;;;;4996946;28;20188;-72
2022/05/02 04:30:08;;;;;;;42.00;27.17;;;11.20;46.70;;;;;;4994602;28;20440;-72
2022/05/02 04:32:34;;;;;;;40.50;27.13;;;11.40;46.20;;;;;;4998470;28;20219;-72
2022/05/02 04:34:59;;;;;;;42.20;25.50;;;11.20;47.10;;;;;;4998423;28;20185;-70
2022/05/02 04:37:25;;;;;;;45.83;27.60;;;11.00;47.80;;;;;;5001670;28;20179;-71
2022/05/02 04:39:51;;;;;;;41.80;27.63;;;11.00;48.20;;;;;;4994122;28;20181;-71
2022/05/02 04:42:18;;;;;;;46.38;28.98;;;11.10;47.30;;;;;;5002196;28;20284;-71
2022/05/02 04:44:43;;;;;;;42.42;26.70;;;11.20;47.70;;;;;;4993472;28;20225;-70
2022/05/02 04:47:09;;;;;;;43.30;28.00;;;11.20;47.40;;;;;;5001248;28;20662;-72
2022/05/02 04:49:35;;;;;;;46.37;27.60;;;11.20;47.10;;;;;;5002093;28;20270;-71
2022/05/02 04:52:00;;;;;;;57.33;28.87;;;11.30;47.20;;;;;;4993834;28;20186;-72
2022/05/02 04:54:26;;;;;;;50.03;29.73;;;11.40;47.50;;;;;;4994070;28;20660;-72
2022/05/02 04:56:52;;;;;;;46.10;28.90;;;11.40;47.20;;;;;;4983501;28;20222;-72
2022/05/02 04:59:17;;;;;;;47.00;28.73;;;11.40;47.20;;;;;;5002901;28;20247;-71
2022/05/02 05:01:44;;;;;;;57.17;29.50;;;11.40;47.10;;;;;;5005323;28;20177;-71
2022/05/02 05:04:10;;;;;;;43.97;28.10;;;11.30;47.90;;;;;;5013144;28;20579;-71
2022/05/02 05:06:35;;;;;;;47.73;28.27;;;11.20;48.00;;;;;;5005914;28;20192;-71
2022/05/02 05:09:02;;;;;;;54.17;29.73;;;11.30;48.10;;;;;;5000636;28;20535;-72
2022/05/02 05:11:30;;;;;;;55.67;28.75;;;11.20;48.40;;;;;;4993633;28;20425;-71
2022/05/02 05:17:05;;;;;;;50.30;27.45;;;11.20;48.70;;;;;;4993531;28;20678;-71
2022/05/02 05:20:09;;;;;;;57.67;29.77;;;11.10;49.40;;;;;;4996265;28;20186;-71
2022/05/02 05:22:56;;;;;;;47.58;30.25;;;11.20;49.50;;;;;;4992358;28;20190;-72
2022/05/02 05:25:25;;;;;;;49.93;33.10;;;11.50;47.40;;;;;;4993402;28;20219;-73
2022/05/02 05:28:30;;;;;;;50.42;31.73;;;11.40;47.40;;;;;;4992817;28;20618;-69
2022/05/02 05:31:17;;;;;;;49.42;29.30;;;11.60;47.10;;;;;;4989707;28;20532;-71
2022/05/02 05:34:08;;;;;;;45.63;28.02;;;11.90;46.30;;;;;;5002295;28;20606;-72
2022/05/02 05:36:53;;;;;;;43.60;26.87;;;11.90;46.40;;;;;;5013059;28;20646;-72
2022/05/02 05:39:41;;;;;;;48.83;27.57;;;11.70;45.50;;;;;;5012067;28;20431;-71
2022/05/02 05:42:21;;;;;;;42.63;27.35;;;11.80;45.70;;;;;;4991927;28;20514;-70
2022/05/02 05:45:14;;;;;;;45.47;26.67;;;11.90;45.60;;;;;;4993215;28;20216;-72
2022/05/02 05:47:42;;;;;;;51.43;27.77;;;12.10;45.40;;;;;;4982511;28;20205;-72
2022/05/02 05:50:31;;;;;;;38.57;26.50;;;12.50;45.30;;;;;;4992037;28;20416;-71
2022/05/02 05:53:32;;;;;;;48.17;26.07;;;11.80;47.20;;;;;;4997275;28;20987;-71
2022/05/02 05:56:19;;;;;;;40.33;26.37;;;11.60;46.70;;;;;;5012664;28;20806;-71
2022/05/02 05:59:10;;;;;;;43.43;27.57;;;11.30;47.20;;;;;;4992771;28;20452;-72
2022/05/02 06:01:56;;;;;;;43.50;27.53;;;11.40;48.60;;;;;;4990982;28;20437;-69
2022/05/02 06:04:27;;;;;;;44.63;28.70;;;10.90;50.00;;;;;;4994434;28;20442;-71
2022/05/02 06:06:54;;;;;;;48.17;27.80;;;11.00;50.50;;;;;;5000408;28;20419;-72
2022/05/02 06:09:21;;;;;;;52.47;27.50;;;11.40;50.00;;;;;;4993751;28;20432;-69
2022/05/02 06:11:49;;;;;;;45.30;27.43;;;11.70;47.20;;;;;;4998105;28;20490;-68
2022/05/02 06:14:15;;;;;;;46.73;27.83;;;11.60;48.60;;;;;;5003572;28;20993;-71
2022/05/02 06:19:33;;;;;;;44.90;27.80;;;11.70;48.60;;;;;;4987249;28;20436;-70
2022/05/02 06:22:01;;;;;;;43.67;27.43;;;11.80;47.70;;;;;;4991441;28;20436;-72
2022/05/02 06:24:30;;;;;;;38.93;27.20;;;11.80;47.50;;;;;;4998670;28;20467;-72
2022/05/02 06:26:59;;;;;;;48.47;29.40;;;12.10;46.30;;;;;;4995646;28;20794;-70
2022/05/02 06:29:25;;;;;;;44.57;27.93;;;12.10;47.50;;;;;;4999475;28;20947;-72
2022/05/02 06:31:54;;;;;;;42.47;28.93;;;12.30;47.20;;;;;;5004160;28;20932;-71
2022/05/02 06:34:26;;;;;;;50.27;30.17;;;13.00;46.90;;;;;;4994800;28;20464;-70
2022/05/02 06:37:15;;;;;;;44.13;28.10;;;13.10;46.40;;;;;;5011708;28;20409;-72
2022/05/02 06:39:46;;;;;;;42.40;27.73;;;12.90;45.40;;;;;;4999004;28;20474;-71
2022/05/02 06:42:29;;;;;;;40.13;26.43;;;13.00;43.90;;;;;;5011533;28;21155;-71
2022/05/02 06:45:13;;;;;;;41.13;27.80;;;12.50;44.60;;;;;;4997897;28;20778;-72
2022/05/02 06:47:47;;;;;;;44.83;26.40;;;12.50;46.30;;;;;;4972700;28;20394;-72
2022/05/02 06:50:20;;;;;;;43.27;27.70;;;11.90;48.30;;;;;;4972573;28;20900;-71
2022/05/02 06:53:06;;;;;;;55.43;26.77;;;12.20;48.10;;;;;;4976485;28;20560;-71
2022/05/02 06:55:59;;;;;;;57.13;25.20;;;12.80;46.00;;;;;;4973160;28;20502;-72
2022/05/02 06:58:48;;;;;;;38.80;25.07;;;13.30;44.20;;;;;;4991539;28;20899;-69
2022/05/02 07:01:23;;;;;;;39.03;26.40;;;13.00;44.70;;;;;;4999788;28;20418;-72
2022/05/02 07:04:03;;;;;;;42.77;26.47;;;13.40;44.80;;;;;;4988288;28;20966;-72
2022/05/02 07:06:44;;;;;;;35.17;24.33;;;13.20;44.80;;;;;;4989056;28;20468;-70
2022/05/02 07:09:16;;;;;;;35.63;25.30;;;13.20;47.00;;;;;;5011262;28;20431;-72
2022/05/02 07:12:06;;;;;;;47.20;26.10;;;13.30;44.60;;;;;;5011230;28;20494;-73
2022/05/02 07:14:51;;;;;;;37.57;26.10;;;13.70;43.00;;;;;;5000524;28;20554;-72
2022/05/02 07:17:42;;;;;;;33.90;24.13;;;13.40;44.90;;;;;;4999161;28;20455;-72
2022/05/02 07:20:45;;;;;;;55.13;24.40;;;12.90;46.70;;;;;;4980648;28;20755;-71
2022/05/02 07:23:14;;;;;;;38.00;23.60;;;13.10;44.30;;;;;;4947614;28;20451;-71
2022/05/02 07:25:45;;;;;;;38.70;25.93;;;12.60;46.70;;;;;;4989576;28;20431;-73
2022/05/02 07:28:35;;;;;;;40.73;25.10;;;12.80;46.70;;;;;;4992533;28;20440;-72
2022/05/02 07:31:02;;;;;;;40.03;24.87;;;13.80;43.00;;;;;;4991002;28;20446;-72
2022/05/02 07:33:35;;;;;;;36.87;24.70;;;14.60;40.60;;;;;;4992671;28;20558;-72
2022/05/02 07:36:02;;;;;;;38.13;26.10;;;15.10;38.70;;;;;;5001243;28;20916;-74
2022/05/02 07:38:31;;;;;;;39.13;26.03;;;14.90;40.00;;;;;;4992348;28;20859;-74
2022/05/02 07:41:22;;;;;;;38.93;26.50;;;15.10;38.90;;;;;;4994879;28;20417;-73
2022/05/02 07:43:50;;;;;;;38.87;24.70;;;14.30;40.10;;;;;;4989266;28;20530;-73
2022/05/02 07:46:23;;;;;;;41.13;28.43;;;14.30;42.50;;;;;;4982196;28;20430;-72
2022/05/02 07:48:51;;;;;;;37.37;27.70;;;14.70;40.20;;;;;;4999692;28;20439;-72
2022/05/02 07:51:19;;;;;;;42.07;26.60;;;15.60;36.90;;;;;;5002741;28;20929;-73
2022/05/02 07:53:46;;;;;;;38.00;25.40;;;15.50;36.70;;;;;;4997102;28;21339;-72
2022/05/02 07:56:13;;;;;;;43.90;24.47;;;15.40;36.80;;;;;;4992876;28;20444;-73
2022/05/02 07:58:45;;;;;;;51.23;25.53;;;15.10;36.60;;;;;;4991180;28;20480;-73
2022/05/02 08:01:11;;;;;;;35.30;23.90;;;14.90;36.90;;;;;;5001302;28;20439;-72
2022/05/02 08:03:37;;;;;;;31.97;22.60;;;15.30;37.10;;;;;;4991286;28;20969;-72
2022/05/02 08:06:46;;;;;;;33.63;23.23;;;15.80;35.10;;;;;;4998587;28;20284;-72
2022/05/02 08:09:40;;;;;;;31.00;21.93;;;16.20;34.00;;;;;;4965989;28;20253;-72
2022/05/02 08:12:24;;;;;;;36.63;24.80;;;15.80;34.80;;;;;;4993737;28;20508;-72
2022/05/02 08:15:31;;;;;;;34.63;23.07;;;14.70;37.30;;;;;;5002857;28;20460;-73
2022/05/02 08:18:03;;;;;;;39.93;24.50;;;15.00;38.10;;;;;;5001159;28;20428;-72
2022/05/02 08:20:40;;;;;;;34.90;23.20;;;15.10;37.60;;;;;;4998094;28;20540;-73
2022/05/02 08:29:50;;;;;;;35.80;23.10;;;15.40;37.40;;;;;;4998288;28;21028;-72
2022/05/02 08:32:40;;;;;;;33.00;21.80;;;16.10;36.90;;;;;;5014001;28;21066;-69
2022/05/02 08:35:09;;;;;;;34.83;22.10;;;16.80;33.60;;;;;;4995009;28;20453;-72
2022/05/02 08:38:10;;;;;;;31.70;23.13;;;16.70;34.00;;;;;;4998641;28;21015;-71
2022/05/02 08:40:45;;;;;;;28.93;21.90;;;17.10;35.00;;;;;;4986719;28;20445;-72
2022/05/02 08:43:47;;;;;;;31.10;20.77;;;17.60;34.30;;;;;;4991005;28;20517;-72
2022/05/02 08:46:47;;;;;;;39.63;21.27;;;17.50;31.60;;;;;;5002786;28;20437;-73
2022/05/02 08:49:54;;;;;;;34.83;19.70;;;17.20;33.10;;;;;;4996440;28;20467;-70
2022/05/02 08:52:22;;;;;;;32.20;21.63;;;17.90;32.30;;;;;;4999280;28;20468;-69
2022/05/02 08:55:12;;;;;;;32.97;20.63;;;18.10;31.90;;;;;;5002181;28;20471;-72
2022/05/02 08:58:06;;;;;;;28.67;19.20;;;17.90;30.70;;;;;;4992481;28;20520;-73
2022/05/02 09:00:46;;;;;;;26.80;19.47;;;17.80;31.50;;;;;;4995777;28;20827;-74
2022/05/02 09:03:33;;;;;;;29.90;19.77;;;18.60;32.20;;;;;;4994011;28;20440;-72
2022/05/02 09:06:26;;;;;;;26.40;19.50;;;18.40;29.00;;;;;;4992072;28;20433;-73
2022/05/02 09:09:14;;;;;;;29.87;19.47;;;18.60;29.00;;;;;;4988043;28;20427;-72
2022/05/02 09:11:59;;;;;;;32.33;21.10;;;19.20;30.90;;;;;;5013061;28;20455;-72
2022/05/02 09:14:33;;;;;;;29.17;20.40;;;19.40;29.60;;;;;;5008261;28;20463;-72
2022/05/02 09:17:15;;;;;;;25.50;19.30;;;19.40;30.00;;;;;;5001097;28;20478;-70
2022/05/02 09:20:23;;;;;;;29.33;20.33;;;19.60;29.10;;;;;;5013214;28;20436;-70
2022/05/02 09:23:03;;;;;;;28.23;19.20;;;19.80;28.80;;;;;;4946721;28;20460;-72
2022/05/02 09:25:48;;;;;;;32.60;20.70;;;19.40;27.90;;;;;;4985278;28;20439;-72
2022/05/02 09:28:36;;;;;;;26.63;18.10;;;19.70;30.60;;;;;;4998213;28;20428;-71
2022/05/02 09:31:20;;;;;;;29.20;17.10;;;20.10;28.00;;;;;;4986453;28;20485;-71
2022/05/02 09:33:57;;;;;;;23.37;17.27;;;19.90;27.80;;;;;;4988786;28;20476;-71
2022/05/02 09:36:27;;;;;;;23.30;17.00;;;20.10;27.20;;;;;;4989626;28;20799;-72
2022/05/02 09:39:01;;;;;;;26.17;16.80;;;20.60;27.30;;;;;;4991163;28;20506;-72
2022/05/02 09:42:04;;;;;;;24.80;17.53;;;19.80;27.40;;;;;;4993203;28;20507;-70
2022/05/02 09:51:03;;;;;;;26.40;18.23;;;19.40;28.00;;;;;;4985717;28;20439;-70
2022/05/02 09:53:32;;;;;;;27.37;18.40;;;18.50;29.00;;;;;;4984619;28;20469;-70
2022/05/02 09:56:38;;;;;;;31.40;18.50;;;17.80;31.70;;;;;;4989950;28;20935;-71
2022/05/02 09:59:28;;;;;;;31.20;19.60;;;18.80;32.40;;;;;;4995149;28;20561;-71
2022/05/02 10:02:05;;;;;;;24.40;18.40;;;19.30;28.40;;;;;;4999319;28;20972;-71
2022/05/02 10:05:06;;;;;;;21.63;17.13;;;18.50;29.60;;;;;;4973125;28;20428;-71
2022/05/02 10:07:52;;;;;;;20.87;16.30;;;20.00;28.80;;;;;;4973094;28;20430;-72
2022/05/02 10:10:29;;;;;;;26.80;17.97;;;19.90;27.30;;;;;;4973195;28;20443;-72
2022/05/02 10:13:16;;;;;;;23.67;17.60;;;19.90;27.10;;;;;;4998041;28;20448;-70
2022/05/02 10:16:01;;;;;;;22.77;17.03;;;20.20;27.00;;;;;;4991781;28;20847;-70
2022/05/02 10:18:47;;;;;;;27.60;16.40;;;20.90;27.00;;;;;;5001484;28;20902;-71
2022/05/02 10:21:23;;;;;;;21.33;16.27;;;21.50;27.40;;;;;;4997130;28;20429;-71
2022/05/02 10:24:21;;;;;;;19.33;15.33;;;21.60;25.20;;;;;;4992451;28;20775;-70
2022/05/02 10:26:52;;;;;;;23.30;17.47;;;21.60;27.30;;;;;;4988252;28;20438;-70
2022/05/02 10:29:43;;;;;;;20.77;16.37;;;21.20;25.30;;;;;;4992128;28;20964;-70
2022/05/02 10:32:28;;;;;;;25.57;18.20;;;21.10;28.00;;;;;;4990163;28;20935;-72
2022/05/02 10:34:58;;;;;;;28.13;15.50;;;21.70;26.50;;;;;;4982672;28;20480;-74
2022/05/02 10:37:49;;;;;;;21.60;16.73;;;21.80;25.50;;;;;;4993456;28;20463;-70
2022/05/02 10:40:23;;;;;;;21.10;15.20;;;21.90;25.50;;;;;;4986599;28;20436;-71
2022/05/02 10:42:52;;;;;;;22.67;15.90;;;22.50;25.60;;;;;;4970082;28;20986;-72
2022/05/02 10:45:18;;;;;;;20.07;15.70;;;21.70;24.30;;;;;;4991437;28;20796;-70
2022/05/02 10:47:49;;;;;;;21.47;15.67;;;20.30;25.60;;;;;;4984851;28;20443;-70
2022/05/02 10:50:20;;;;;;;21.10;14.50;;;20.00;26.30;;;;;;4997136;28;20435;-71
2022/05/02 10:52:46;;;;;;;18.20;13.23;;;20.80;26.90;;;;;;4996236;28;20471;-70
2022/05/02 10:55:32;;;;;;;14.63;11.90;;;21.80;24.40;;;;;;4989968;28;20547;-71
2022/05/02 10:58:03;;;;;;;14.93;11.27;;;21.90;22.90;;;;;;4998484;28;20178;-70
2022/05/02 11:00:31;;;;;;;18.77;13.40;;;22.10;23.90;;;;;;4984311;28;20467;-71
2022/05/02 11:02:59;;;;;;;19.07;12.47;;;22.30;23.90;;;;;;4979422;28;20446;-72
2022/05/02 11:05:51;;;;;;;20.03;14.20;;;22.00;24.70;;;;;;5000011;28;20442;-71
2022/05/02 11:08:26;;;;;;;20.67;13.77;;;21.80;26.20;;;;;;4987703;28;20432;-70
2022/05/02 11:10:58;;;;;;;22.17;13.73;;;22.20;24.00;;;;;;4986914;28;20460;-70
2022/05/02 11:13:29;;;;;;;16.77;13.70;;;22.80;24.50;;;;;;4978548;28;20467;-71
2022/05/02 11:16:13;;;;;;;20.07;12.50;;;23.20;22.40;;;;;;4999408;28;20445;-70
2022/05/02 11:22:38;;;;;;;15.47;10.77;;;22.90;22.80;;;;;;4919734;29;20450;-71
2022/05/02 11:25:35;;;;;;;12.30;10.30;;;23.40;24.10;;;;;;4909025;29;20448;-71
2022/05/02 11:28:04;;;;;;;13.40;11.10;;;24.10;20.50;;;;;;4929544;29;20440;-71
2022/05/02 11:30:38;;;;;;;14.80;9.50;;;24.60;18.30;;;;;;4911891;29;20467;-73
2022/05/02 11:33:16;;;;;;;12.90;9.30;;;24.80;19.10;;;;;;4912304;29;20472;-70
2022/05/02 11:35:48;;;;;;;11.17;8.77;;;23.80;21.00;;;;;;4900471;29;20439;-72
2022/05/02 11:38:49;;;;;;;11.30;8.37;;;25.10;20.20;;;;;;4908569;29;20436;-72
2022/05/02 11:41:19;;;;;;;12.73;8.70;;;25.30;20.70;;;;;;4919632;29;20590;-71
2022/05/02 11:43:46;;;;;;;11.43;8.30;;;27.20;16.60;;;;;;4911716;29;20464;-71
2022/05/02 11:46:20;;;;;;;13.93;9.67;;;28.10;15.30;;;;;;4919347;29;20444;-70
2022/05/02 11:48:57;;;;;;;12.60;9.37;;;25.40;17.80;;;;;;4920106;29;20426;-71
2022/05/02 11:51:44;;;;;;;12.70;9.60;;;23.90;19.90;;;;;;4912859;29;20925;-70
2022/05/02 11:54:36;;;;;;;11.83;8.43;;;23.70;21.10;;;;;;4926084;29;20586;-71
2022/05/02 11:57:22;;;;;;;10.30;7.50;;;24.40;21.10;;;;;;5005081;28;20412;-71
2022/05/02 11:59:54;;;;;;;11.27;7.27;;;26.10;18.30;;;;;;4995136;28;20883;-71
2022/05/02 12:02:41;;;;;;;14.23;8.60;;;27.20;16.10;;;;;;4994478;28;20448;-71
2022/05/02 12:05:18;;;;;;;9.23;8.00;;;27.20;15.20;;;;;;4994054;28;20436;-71
2022/05/02 12:07:51;;;;;;;13.53;8.83;;;26.60;16.20;;;;;;4994712;28;20427;-71
2022/05/02 12:10:19;;;;;;;10.90;8.57;;;26.30;16.50;;;;;;4993619;28;20792;-71
2022/05/02 12:12:50;;;;;;;10.63;8.50;;;25.80;17.40;;;;;;4994151;28;20515;-71
2022/05/02 12:15:17;;;;;;;10.50;8.07;;;25.00;17.80;;;;;;5001443;28;20417;-70
2022/05/02 12:17:55;;;;;;;9.10;7.87;;;24.70;17.80;;;;;;5002548;28;20460;-70
2022/05/02 12:20:25;;;;;;;11.20;9.00;;;24.50;18.00;;;;;;5004854;28;20439;-71
2022/05/02 12:23:16;;;;;;;11.20;8.07;;;24.20;18.70;;;;;;4996895;28;20827;-71
2022/05/02 12:25:49;;;;;;;11.40;7.70;;;24.90;17.90;;;;;;4992919;28;20811;-71
2022/05/02 12:28:35;;;;;;;11.47;7.47;;;25.70;17.60;;;;;;5002343;28;20988;-71
2022/05/02 12:31:01;;;;;;;12.20;7.57;;;26.50;18.40;;;;;;4997523;28;20445;-73
2022/05/02 12:33:27;;;;;;;14.33;7.30;;;26.90;17.30;;;;;;4994516;28;20522;-71
2022/05/02 12:35:54;;;;;;;12.27;8.70;;;26.20;17.60;;;;;;4992532;28;20946;-71
2022/05/02 12:38:28;;;;;;;10.13;8.00;;;26.20;15.80;;;;;;4994433;28;20173;-70
2022/05/02 12:41:01;;;;;;;9.87;8.23;;;25.70;18.00;;;;;;5000815;28;20806;-71
2022/05/02 12:43:40;;;;;;;7.97;6.97;;;26.60;16.70;;;;;;4989493;28;20462;-72
2022/05/02 12:46:10;;;;;;;10.83;7.47;;;27.80;16.00;;;;;;4992327;28;20459;-72
2022/05/02 12:48:41;;;;;;;12.47;6.80;;;27.80;15.10;;;;;;4991699;28;20455;-71
2022/05/02 12:51:15;;;;;;;8.90;7.20;;;28.00;15.00;;;;;;4989946;28;20516;-71
2022/05/02 12:56:24;;;;;;;10.27;7.10;;;28.20;13.30;;;;;;4988511;28;20432;-71
2022/05/02 13:01:46;;;;;;;8.90;6.87;;;25.80;17.80;;;;;;4990405;28;20227;-71
2022/05/02 13:04:17;;;;;;;8.60;7.07;;;25.40;16.30;;;;;;4990211;28;20472;-71
2022/05/02 13:06:44;;;;;;;9.33;7.50;;;25.80;17.00;;;;;;4987861;28;20441;-72
2022/05/02 13:09:12;;;;;;;14.53;6.90;;;27.20;15.30;;;;;;4994486;28;20444;-71
2022/05/02 13:11:39;;;;;;;9.67;6.60;;;27.40;16.00;;;;;;5001368;28;20436;-72
2022/05/02 13:14:05;;;;;;;8.60;6.60;;;27.40;17.10;;;;;;4992428;28;20500;-71
2022/05/02 13:16:44;;;;;;;9.90;5.83;;;27.70;15.20;;;;;;4996384;28;20941;-74
2022/05/02 13:19:10;;;;;;;15.03;6.37;;;28.10;14.80;;;;;;4991654;28;20780;-72
2022/05/02 13:21:35;;;;;;;8.70;6.60;;;28.60;13.50;;;;;;4994800;28;20435;-72
2022/05/02 13:24:07;;;;;;;9.33;6.27;;;27.60;13.00;;;;;;4989438;28;20456;-73
2022/05/02 13:26:37;;;;;;;9.30;6.83;;;26.30;16.50;;;;;;5001195;28;20182;-72
2022/05/02 13:29:29;;;;;;;9.60;7.00;;;24.90;17.70;;;;;;4997777;28;20511;-72
2022/05/02 13:32:16;;;;;;;11.73;6.27;;;24.90;17.60;;;;;;4994691;28;20485;-71